Kodiak, AK

2:49 AM AKDT on August 24, 2016 (GMT -0800)
Kodiak College | | Change Station

Elev 154 ft 57.81 °N, 152.37 °W | Updated 8 minutes ago

Overcast
Overcast
55.8 °F
Feels Like 55.8 °F
N
3.2
Wind Variable Wind from North

Today
High -- | Low -- °F
--% Chance of Precip.
Yesterday
High -- | Low -- °F
Precip. -- in
Pressure 30.08 in
Visibility 5.0 miles
Clouds Scattered Clouds 200 ft
Mostly Cloudy 2100 ft
Overcast 3300 ft
Dew Point 54 °F
Humidity 92%
Rainfall 0.13 in
Snow Depth Not available.
6:54 AM 9:27 PM
Waning Gibbous, 58% visible
SPECI PADQ 241037Z 07011KT 5SM BR SCT002 BKN021 OVC033 13/13 A3008 RMK AO2 T01330133
Pressure 30.08 in
Visibility 5.0 miles
Clouds Scattered Clouds 200 ft
Mostly Cloudy 2100 ft
Overcast 3300 ft
Dew Point 54 °F
Humidity 92%
Rainfall 0.13 in
Snow Depth Not available.
6:54 AM 9:27 PM
Waning Gibbous, 58% visible
SPECI PADQ 241037Z 07011KT 5SM BR SCT002 BKN021 OVC033 13/13 A3008 RMK AO2 T01330133

10-Day Weather Forecast

Almanac

Astronomy

Aug. 24, 2016 Rise Set
Actual Time
Civil Twilight
Nautical Twilight
Astronomical Twilight
Moon
Length of Visible Light
Length of Day
Tomorrow will be .
, % of the Moon is Illuminated

Today's Extremes

State Highs State Lows

Community

WunderPhotos

Upload Photos

1,934,562 photos uploaded!

WunderBlog® & News

Nearby

Air Quality

  Air Quality AQ Index Pollutant
Not available.

Snow Depth

Station Depth Elevation

Earthquake Activity

City Distance Mag. Time & Date
Minimum magnitude displayed is 2.5.

Coastal Water Temperatures

Place Temperature

Stations

Nearby Weather Stations

Station Location Temp. Windchill Dew Point Humidity Wind Precip. Elev Updated Type
                   

Watches & Warnings

There are currently no watches in effect.